Timeline UpdatesTrip UpdatesNews PostsPvt PostsTravel TipsAdmin PostsConv PostsFollowed PostsChat RequestsBlog PostsPNR Posts

Disclaimer
Search
 
 
Thu Apr 24, 2014 21:45:34 ISTHomeTrainsΣChainsAtlasPNRForumGalleryNewsFAQTripsMembersLoginFeedback
No Recent News for this Train
Other Trains in the News **new
Latest...
Permanent AC-3T added from 01 Sep 12 http://indiarailinfo.com/blog/post/512304
Sat Aug 25, 2012 (09:15AM)
⇐ Return Journey: Train# 18234

18233/Narmada Express

Nov 09 2013 (8:39PM)
Change Departure Station:
Change Arrival Station:
Post a Train Travel TipPost a Train Travel Tip **new
Post a Comment/Question/Picture/VideoPost a Comment/Question/Picture/Video
Pantry/Catering
✕ NO Pantry Car
✓ Catering Avbl
Loco/Rake Reversals
UJN/Ujjain Junction (8); ET/Itarsi Junction (7); KTE/Katni Junction (6);
RSA - Rake Sharing
Rake/Coach Composition
ENG-SLR-GS-GS-GS-S1-S2-S3-S4-S5-S6-S7-S8-S9-S10-A1-HA1-B1-B2-GS-GS-SLR (INDB-UJN, ET-KTE); ENG-SLR-GS-GS-B2-B1-HA1-A1-S10-S9-S8-S7-S6-S5-S4-S3-S2-S1-GS-GS-GS-SLR (UJN-ET), (KTE-BSP)
Loco
ET WAM 4/6p (INDB-ET) ET WDP4/WDM-3A (ET-KTE) ET WAM/P4 (KTE-BSP)
News    PNR    Forum    Time-Table    Availability    Fare Chart    Map    Arr/Dep History    Trips    Gallery    ΣChains    X/O    Timeline    
Travel Time: 24h 10m    67 halts    Distance: 1010 km    Avg Speed: 41 km/hr
Type: Mail/Express
Zone: SECR/South East Central
Departs @ 17:15 (Avg 5m late)
Platform# 3
SMTWTFS
Indore Junction BG/INDB 
Arrives @ 17:25 +1 night (Avg 25m late)
Platform# 8
SMTWTFS
Bilaspur Junction/BSP 

67 halts. 125 intermediate Stations between Indore Junction BG and Bilaspur Junction

Show ALL intermediate Stations  Show Old Time-Table

#CodeStation NameX/OArrivesAvgDepartsAvgHaltPFDay#KmSpeedElevZoneAddress
1INDB»Indore Junction BG (3)»  -17:15+5310.056552mWRIndore, Madhya Pradesh
2MGGMangliyagaon (2)  17:31+1717:33+162m--115.075531mWRMangilya, Madhya Pradesh
3BLAXBarlai  17:41+1917:43+192m--125.046519mWRIndore, Madhya Pradesh
4DWXDewas Junction (2)X  18:01+1618:03+202m2138.837541mWRDewas, Madhya Pradesh
5NRGRNaranjipur (1)X  18:19+1718:21+202m1148.639537mWRDewas, Madhya Pradesh
6UDMUndasa Madhopur  18:32+1518:34+152m--155.948528mWRState Highway 18, Madhya Pradesh
7KDHAKarchhaX  18:41+1418:43+142m--161.449514mWRState Highway 18, Madhya Pradesh
8VRGVikram Nagar  18:58+1119:00+112m--173.733503mWRUjjain, Madhya Pradesh
9UJNUjjain Junction (8)19:10+1419:40+1230m1179.173492mWRUjjain, Madhya Pradesh
10TANTarana Road  20:06+1520:07+151m--1110.652498mWRMaksi, Madhya Pradesh
11MKCMaksi Junction (3)X  20:18+1720:20+172m--1120.281510mWRMakshi, Madhya Pradesh
12BCHBerchha (2)  20:34+2220:36+232m--1139.166493mWRShajapur, Madhya Pradesh
13KSHKali Sindh (2)  20:47+2320:49+242m--1151.267443mWRShajapur, Madhya Pradesh
14AKDAkodia (2)  21:05+2521:07+272m--1169.171460mWRDist. Shajapur, Madhya Pradesh
15SJPShujalpur (3)X  21:18+2721:20+292m21182.269453mWRShujalpur, Madhya Pradesh
16KPPKalapipal (2)X  21:31+2821:33+312m--1194.847487mWRState Highway 41, Madhya Pradesh
17SEHSehore (2)  22:10+1822:12+172m21223.836500mWRMP 466001, Madhya Pradesh
18BIHBairagarh (2)X  22:59+723:01+102m21252.344522mWRBhopal, Madhya Pradesh
19BPLBhopal Junction (6)XO  23:15+2923:25+3810m31262.538497mWCRBhopal, Madhya Pradesh
20HBJBhopal HabibGanj (5)OO  23:35+4223:37+482m41268.864496mWCRHabibGanj, Madhya Pradesh
21MDDPMandi Dip (1)X  23:52+5123:54+552m11284.914449mWCRMandideep, Madhya Pradesh
22ODGObaidulla GanjXO  00:53+2000:55+222m12298.458450mWCRObaidullaganj Raisen Dist., Madhya Pradesh
23HBDHoshangabad (4)X  01:34+3801:36+382m--2336.228308mWCRHoshangabad, Madhya Pradesh
24ETItarsi Junction (7)X02:15+1702:25+2710m32354.259329mWCRItarsi 461111, Madhya Pradesh
25BGTABagra Tawa (2)X  02:52+5202:54+532m--2380.777338mWCRBagra Tawa, Madhya Pradesh
26SGPSohagpur (2)  03:12+5303:14+552m--2403.876340mWCRSohagpur, Madhya Pradesh
27PPIPipariya (3)X  03:28+5603:30+562m12421.589338mWCRPiparia, Madhya Pradesh
28SCKRSalichauka Road (2)X  03:54+1:0003:56+1:012m--2456.976355mWCRGadarwara, Madhya Pradesh
29GARGadarwara (2)X  04:07+1:0304:09+1:042m12470.980352mWCRNarsinghpur, Madhya Pradesh
30KYKareli (2)  04:30+1:0704:32+1:082m12498.866361mWCRKareli, Madhya Pradesh
31NUNarsinghpur (2)  04:47+1:0804:49+1:082m12515.274365mWCRNarsimhapur, Madhya Pradesh
32SRIDShridham (3)  05:14+1:1005:16+1:102m22546.266373mWCRShridham, Madhya Pradesh
33MMLMadan Mahal (3)X  06:01+5906:03+1:002m22595.918428mWCRJabalpur, Madhya Pradesh
34JBPJabalpur Junction (7)X  06:15+5806:25+1:0110m--2599.436416mWCRJabalpur, Madhya Pradesh
35DOEDeori (2)  06:53+5506:55+552m--2616.249392mWCRJabalpur, Madhya Pradesh
36GSPRGosalpur (2)XO  07:08+5107:10+522m--2626.748396mWCRJabalpur, Madhya Pradesh
37SHRSihora Road (2)X  07:24+4907:26+492m--2637.875388mWCRJabalpur, Madhya Pradesh
38DDCEDundi (2)X  07:38+4807:40+482m--2652.771415mWCRDundi, Madhya Pradesh
39SBDSleemanabad Road (2)  07:48+4807:50+482m--2662.249434mWCRSleemanabad, Madhya Pradesh
40NWRNiwar (2)X  08:08+4508:10+452m--2676.916412mWCRPipraundh, Madhya Pradesh
41KTEKatni Junction (6)X09:00+1609:20+1520m--2690.122387mWCRKatni, Madhya Pradesh
42JLWJhalwara  09:49+3709:51+372m--2700.770406mSECRNational Highway 78, Madhya Pradesh
43RPDRupaundX  10:01+3810:03+382m--2712.474417mSECRJhalwara, Madhya Pradesh
44CHDChandia Road (1)  10:17+4110:19+422m12729.754406mSECRNational Highway 78, Madhya Pradesh
45UMRUmaria (3)  10:40+3910:45+395m--2748.795469mSECRUmaria, Madhya Pradesh
46KKIKarkeli  10:53+4210:55+422m--2761.360471mSECRUmaria, Madhya Pradesh
47NRZBNowrozabadX  11:05+4211:07+422m--2771.362458mSECRNational Highway 78, Madhya Pradesh
48BRSBirsinghpur  11:14+4311:16+432m--2778.651461mSECRPali, Madhya Pradesh
49SDLShahdolX  12:00+4012:10+4010m12815.973466mSECR, Madhya Pradesh
50BUHBurhar  12:26+4712:28+472m--2835.465494mSECRBurhar, Madhya Pradesh
51AALAmlaiX  12:36+4812:38+492m--2844.235495mSECRAnuppur, Madhya Pradesh
52APRAnuppur Junction (3)X  13:00+4013:05+455m12856.877487mSECRAnuppur, Madhya Pradesh
53CLFChhulha  13:09+5113:11+1:002m--2862.075488mSECRMauhari, Madhya Pradesh
54JTIJaithari  13:18+1:0313:20+1:052m--2870.780522mSECRAnuppur, Madhya Pradesh
55NIQNigaura  13:28+1:0713:30+1:092m--2881.465547mSECRAnuppur, Madhya Pradesh
56VKRVenkatnagarX  13:37+1:1113:39+1:122m--2889.079549mSECRPendra Rd, Madhya Pradesh
57HRBHarri  13:47+1:1613:49+1:172m--2899.624595mSECRVenkatnagar, Madhya Pradesh
58PNDPendra RoadO  14:10+1:0814:15+1:085m--2908.062620mSECRBilaspur district, Chhattisgarh
59KOIKhodriO  14:26+1:1614:28+1:172m--2919.441558mSECRBilaspur, Chhattisgarh
60BHTKBhanwar TonkX  14:45+1:1514:47+1:162m--2931.044455mSECRKhodri, Chhattisgarh
61KGSKhongsara  15:04+1:1415:06+1:152m--2943.485378mSECRBhanwar, Chhattisgarh
62TGQTenganmadaX  15:12+1:1915:16+1:184m--2951.974367mSECRBelgahna, Chhattisgarh
63BIGBelgahnaX  15:24+1:1915:26+1:202m--2961.765327mSECRBilaspur, Chhattisgarh
64SLKRSalkaroad  15:33+1:2015:35+1:202m--2969.361333mSECRGhutku, Chhattisgarh
65KGBKargi RoadX  15:43+1:1915:45+1:192m--2977.559327mSECRBilaspur, Chhattisgarh
66KLTRKalmitar  15:53+1:1815:55+1:182m--2985.319300mSECRUsalapur, Chhattisgarh
67GTKGhutku  16:20+1:0016:22+592m--2993.320288mSECRBilaspur, Chhattisgarh
68USLUslapur (3)  16:45+4416:50+415m--21001.015272mSECRBilaspur, Chhattisgarh
69BSP•Bilaspur Junction (8)•  17:25+25-821009.5-271mSECRBilaspur, Chhattisgarh
Scroll to Top
Scroll to Bottom